Time;durP1;ratioP1;P1;durP2;ratioP2;P2;SDS_P1;SDS_P2;PMS_P1;PMS_P2;Temp;Humidity;BMP_temperature;BMP_pressure;BME280_temperature;BME280_humidity;BME280_pressure;Samples;Min_cycle;Max_cycle;Signal;HPM_P1;HPM_P2
2024/01/31 00:00:24;;;;;;;11.40;2.97;;;27.50;99.90;;;;;;4944215;28;20472;-69
2024/01/31 00:02:52;;;;;;;14.93;3.20;;;28.00;99.90;;;;;;4944558;28;20074;-69
2024/01/31 00:05:19;;;;;;;12.50;2.95;;;28.50;99.90;;;;;;4947054;28;20034;-69
2024/01/31 00:07:48;;;;;;;14.05;3.03;;;28.90;99.30;;;;;;4950914;28;20024;-69
2024/01/31 00:10:16;;;;;;;13.57;3.55;;;29.10;99.20;;;;;;4947520;28;20027;-69
2024/01/31 00:12:43;;;;;;;15.13;2.80;;;29.20;99.80;;;;;;4946092;28;20043;-69
2024/01/31 00:15:11;;;;;;;11.90;3.13;;;29.70;98.80;;;;;;4942557;28;20036;-69
2024/01/31 00:17:38;;;;;;;11.85;2.63;;;30.00;98.40;;;;;;4946639;28;20461;-69
2024/01/31 00:20:06;;;;;;;14.20;2.92;;;30.10;97.80;;;;;;4941997;29;20030;-69
2024/01/31 00:22:33;;;;;;;9.55;2.55;;;29.90;97.80;;;;;;4947345;28;20090;-70
2024/01/31 00:25:01;;;;;;;11.48;2.70;;;29.70;98.10;;;;;;4945316;29;20397;-69
2024/01/31 00:27:28;;;;;;;8.48;2.20;;;29.70;98.10;;;;;;4943399;29;20032;-69
2024/01/31 00:29:55;;;;;;;13.88;3.17;;;29.60;98.10;;;;;;4951172;28;20388;-69
2024/01/31 00:32:22;;;;;;;13.90;2.88;;;29.30;98.30;;;;;;4949431;28;20027;-69
2024/01/31 00:34:50;;;;;;;12.98;3.08;;;28.80;98.80;;;;;;4938369;29;20059;-69
2024/01/31 00:37:17;;;;;;;14.45;3.38;;;28.70;98.80;;;;;;4946976;28;20047;-69
2024/01/31 00:39:48;;;;;;;14.73;3.72;;;28.40;99.30;;;;;;4942870;29;20039;-69
2024/01/31 00:42:15;;;;;;;14.55;2.95;;;28.10;99.40;;;;;;4940506;28;20161;-67
2024/01/31 00:44:43;;;;;;;14.95;2.67;;;28.10;99.90;;;;;;4943304;28;20035;-68
2024/01/31 00:47:10;;;;;;;11.40;2.63;;;27.90;99.90;;;;;;4943592;28;20038;-67
2024/01/31 00:49:38;;;;;;;12.13;2.83;;;27.60;99.90;;;;;;4949078;28;20035;-69
2024/01/31 00:52:06;;;;;;;11.50;3.25;;;27.50;99.90;;;;;;4940449;28;20039;-70
2024/01/31 00:54:33;;;;;;;14.00;2.88;;;27.20;99.90;;;;;;4941353;29;20134;-69
2024/01/31 00:57:01;;;;;;;11.88;2.70;;;27.00;99.90;;;;;;4946805;29;20039;-69
2024/01/31 00:59:28;;;;;;;19.23;3.40;;;27.00;99.90;;;;;;4936143;29;20110;-69
2024/01/31 01:01:56;;;;;;;13.10;3.35;;;26.70;99.90;;;;;;4945541;28;20461;-70
2024/01/31 01:04:23;;;;;;;13.55;2.88;;;26.30;99.90;;;;;;4937741;29;20051;-69
2024/01/31 01:06:50;;;;;;;10.18;3.20;;;26.30;99.90;;;;;;4937517;29;20070;-69
2024/01/31 01:09:17;;;;;;;19.00;4.65;;;26.30;99.90;;;;;;4937244;28;20464;-68
2024/01/31 01:11:45;;;;;;;17.08;3.85;;;26.10;99.90;;;;;;4945933;28;20039;-69
2024/01/31 01:14:12;;;;;;;18.23;4.10;;;25.90;99.90;;;;;;4939707;29;20430;-69
2024/01/31 01:16:39;;;;;;;19.00;4.93;;;25.90;99.90;;;;;;4940795;29;20047;-69
2024/01/31 01:19:07;;;;;;;18.63;5.10;;;25.80;99.90;;;;;;4942774;28;20031;-69
2024/01/31 01:21:35;;;;;;;14.80;4.75;;;25.60;99.90;;;;;;4943411;28;20020;-69
2024/01/31 01:24:02;;;;;;;14.00;4.63;;;25.50;99.90;;;;;;4937383;28;20087;-69
2024/01/31 01:26:30;;;;;;;16.60;4.30;;;25.40;99.90;;;;;;4936175;29;20433;-69
2024/01/31 01:28:57;;;;;;;16.88;4.63;;;25.60;99.90;;;;;;4943896;29;20167;-69
2024/01/31 01:31:24;;;;;;;19.73;4.88;;;25.90;99.90;;;;;;4947440;28;20034;-69
2024/01/31 01:33:52;;;;;;;21.30;5.13;;;26.10;99.90;;;;;;4942825;28;20032;-69
2024/01/31 01:36:19;;;;;;;16.55;5.72;;;25.90;99.90;;;;;;4935717;29;20582;-69
2024/01/31 01:38:46;;;;;;;16.17;5.53;;;25.70;99.90;;;;;;4936959;29;20024;-70
2024/01/31 01:41:14;;;;;;;13.98;4.93;;;25.70;99.90;;;;;;4937076;29;20036;-68
2024/01/31 01:43:42;;;;;;;17.60;4.93;;;25.70;99.90;;;;;;4940208;29;20046;-69
2024/01/31 01:46:14;;;;;;;14.48;4.65;;;25.60;99.90;;;;;;4941760;28;20349;-68
2024/01/31 01:48:42;;;;;;;18.55;5.63;;;25.60;99.90;;;;;;4950945;28;20456;-69
2024/01/31 01:51:10;;;;;;;14.20;5.70;;;25.70;99.90;;;;;;4939440;28;20028;-68
2024/01/31 01:53:38;;;;;;;14.02;5.30;;;25.70;99.90;;;;;;4935889;29;20389;-68
2024/01/31 01:56:09;;;;;;;15.18;5.32;;;25.70;99.90;;;;;;4958576;28;20143;-69
2024/01/31 01:58:37;;;;;;;17.67;5.03;;;25.90;99.90;;;;;;4940290;28;20472;-68
2024/01/31 02:01:05;;;;;;;12.48;4.72;;;26.10;99.90;;;;;;4944473;28;20027;-69
2024/01/31 02:03:33;;;;;;;16.10;6.07;;;26.30;99.90;;;;;;4940757;29;20035;-68
2024/01/31 02:06:04;;;;;;;12.60;4.63;;;26.60;99.90;;;;;;4941381;29;20468;-68
2024/01/31 02:08:31;;;;;;;16.17;4.47;;;26.80;99.90;;;;;;4933320;29;20460;-68
2024/01/31 02:10:58;;;;;;;14.30;5.28;;;27.00;99.90;;;;;;4936701;29;20032;-68
2024/01/31 02:13:26;;;;;;;10.35;3.95;;;27.10;99.90;;;;;;4935697;28;20027;-69
2024/01/31 02:15:54;;;;;;;15.27;4.72;;;27.20;99.90;;;;;;4935694;29;20086;-69
2024/01/31 02:18:28;;;;;;;15.48;5.65;;;27.30;99.90;;;;;;4936890;29;20086;-69
2024/01/31 02:20:56;;;;;;;13.25;4.85;;;27.40;99.90;;;;;;4935035;29;20032;-69
2024/01/31 02:23:23;;;;;;;13.80;4.60;;;27.80;99.90;;;;;;4936672;29;20032;-69
2024/01/31 02:25:51;;;;;;;15.45;5.43;;;28.00;99.90;;;;;;4934632;29;20355;-69
2024/01/31 02:28:18;;;;;;;16.20;4.82;;;28.50;99.90;;;;;;4942371;28;20373;-69
2024/01/31 02:30:46;;;;;;;12.70;3.80;;;29.10;99.90;;;;;;4942251;28;20027;-68
2024/01/31 02:33:13;;;;;;;10.85;3.10;;;29.50;99.90;;;;;;4936475;28;20397;-68
2024/01/31 02:35:40;;;;;;;9.30;2.70;;;29.90;99.90;;;;;;4935108;29;20120;-68
2024/01/31 02:38:08;;;;;;;12.18;3.33;;;30.00;99.90;;;;;;4937018;29;20388;-69
2024/01/31 02:40:35;;;;;;;13.48;3.05;;;30.10;99.90;;;;;;4937830;29;20035;-68
2024/01/31 02:43:03;;;;;;;10.77;2.85;;;30.50;99.90;;;;;;4933838;29;20028;-69
2024/01/31 02:45:30;;;;;;;12.52;2.70;;;31.10;99.90;;;;;;4934119;29;20063;-68
2024/01/31 02:47:57;;;;;;;9.48;3.15;;;31.20;99.90;;;;;;4934585;29;20030;-68
2024/01/31 02:50:26;;;;;;;11.50;3.22;;;31.10;99.90;;;;;;4935642;29;20028;-68
2024/01/31 02:52:54;;;;;;;9.50;3.13;;;31.10;99.70;;;;;;4934405;29;20056;-68
2024/01/31 02:55:21;;;;;;;9.35;2.90;;;31.40;99.90;;;;;;4936267;29;20440;-68
2024/01/31 02:57:49;;;;;;;10.98;2.45;;;31.70;99.30;;;;;;4941161;29;20028;-68
2024/01/31 03:00:16;;;;;;;8.80;2.65;;;31.00;99.40;;;;;;4938397;29;20038;-68
2024/01/31 03:02:44;;;;;;;9.43;2.30;;;30.60;99.40;;;;;;4940071;28;20135;-68
2024/01/31 03:05:12;;;;;;;8.60;2.20;;;30.40;99.90;;;;;;4938571;28;20027;-68
2024/01/31 03:07:40;;;;;;;8.77;2.22;;;30.10;99.90;;;;;;4936363;28;20106;-69
2024/01/31 03:10:09;;;;;;;6.72;2.28;;;29.90;99.90;;;;;;4946079;28;20386;-68
2024/01/31 03:12:36;;;;;;;9.38;2.40;;;29.50;99.90;;;;;;4934759;28;20114;-69
2024/01/31 03:15:04;;;;;;;9.10;1.85;;;29.10;99.90;;;;;;4943119;28;20047;-68
2024/01/31 03:17:35;;;;;;;7.13;2.15;;;28.80;99.90;;;;;;4939806;28;20028;-68
2024/01/31 03:20:06;;;;;;;10.25;2.45;;;28.60;99.90;;;;;;4938869;28;20055;-68
2024/01/31 03:22:37;;;;;;;10.77;2.70;;;28.30;99.90;;;;;;4943412;29;20496;-68
2024/01/31 03:25:05;;;;;;;10.95;2.38;;;28.20;99.90;;;;;;4934527;29;20115;-68
2024/01/31 03:27:32;;;;;;;9.18;2.70;;;28.30;99.90;;;;;;4936397;28;20028;-68
2024/01/31 03:30:01;;;;;;;10.25;2.85;;;28.30;99.90;;;;;;4939984;29;20055;-68
2024/01/31 03:32:31;;;;;;;7.63;2.45;;;28.30;99.90;;;;;;4933271;29;20429;-69
2024/01/31 03:35:01;;;;;;;9.82;1.92;;;28.30;99.90;;;;;;4933061;29;20027;-68
2024/01/31 03:37:29;;;;;;;12.00;2.38;;;28.20;99.90;;;;;;4956363;28;20492;-69
2024/01/31 03:39:56;;;;;;;10.77;2.13;;;28.10;99.90;;;;;;4935791;28;20035;-69
2024/01/31 03:42:23;;;;;;;8.85;1.85;;;28.10;99.90;;;;;;4950253;28;20053;-68
2024/01/31 03:44:51;;;;;;;7.72;2.58;;;28.40;99.90;;;;;;4935660;28;20474;-69
2024/01/31 03:47:18;;;;;;;6.90;2.10;;;28.50;99.90;;;;;;4948382;28;20085;-69
2024/01/31 03:49:46;;;;;;;8.18;2.78;;;28.50;99.90;;;;;;4934024;29;20417;-69
2024/01/31 03:52:14;;;;;;;10.70;2.47;;;28.40;99.90;;;;;;4937652;29;20114;-69
2024/01/31 03:54:42;;;;;;;6.68;2.03;;;28.50;99.90;;;;;;4955627;28;20142;-69
2024/01/31 03:57:09;;;;;;;12.02;2.15;;;28.50;99.90;;;;;;4947594;28;20058;-69
2024/01/31 03:59:38;;;;;;;4.57;1.77;;;28.60;99.90;;;;;;4936612;29;20509;-70
2024/01/31 04:02:05;;;;;;;8.75;2.25;;;28.60;99.90;;;;;;4945026;29;20130;-69
2024/01/31 04:04:33;;;;;;;6.65;2.20;;;28.60;99.90;;;;;;4942509;29;20020;-69
2024/01/31 04:07:00;;;;;;;5.70;2.15;;;28.60;99.90;;;;;;4937761;29;20552;-69
2024/01/31 04:09:28;;;;;;;11.32;2.20;;;28.50;99.90;;;;;;4939807;29;20028;-70
2024/01/31 04:11:55;;;;;;;9.60;2.17;;;28.70;99.90;;;;;;4946609;28;20082;-69
2024/01/31 04:14:22;;;;;;;8.05;1.80;;;28.70;99.90;;;;;;4942719;28;20051;-69
2024/01/31 04:16:49;;;;;;;9.48;2.17;;;28.90;99.90;;;;;;4949901;28;20046;-68
2024/01/31 04:19:17;;;;;;;7.63;2.15;;;28.80;99.80;;;;;;4936597;29;20376;-69
2024/01/31 04:21:44;;;;;;;8.75;1.80;;;28.70;99.80;;;;;;4942143;28;20062;-69
2024/01/31 04:24:12;;;;;;;6.75;1.90;;;28.60;99.90;;;;;;4943409;29;20109;-69
2024/01/31 04:26:45;;;;;;;6.88;1.52;;;28.60;99.90;;;;;;4945648;28;20525;-70
2024/01/31 04:29:12;;;;;;;5.95;1.83;;;28.40;99.90;;;;;;4939956;28;20098;-70
2024/01/31 04:31:40;;;;;;;6.82;1.80;;;28.10;99.90;;;;;;4942310;28;20126;-69
2024/01/31 04:34:08;;;;;;;4.85;1.30;;;28.10;99.90;;;;;;4946885;28;20398;-69
2024/01/31 04:36:35;;;;;;;7.22;1.58;;;28.00;99.90;;;;;;4943167;28;20043;-69
2024/01/31 04:39:03;;;;;;;6.72;1.83;;;28.00;99.90;;;;;;4942375;28;20039;-68
2024/01/31 04:41:30;;;;;;;5.15;1.20;;;27.80;99.90;;;;;;4941449;28;20480;-69
2024/01/31 04:43:57;;;;;;;5.88;1.65;;;27.70;99.90;;;;;;4936596;29;20079;-69
2024/01/31 04:46:25;;;;;;;5.20;1.35;;;27.70;99.90;;;;;;4939288;28;20039;-70
2024/01/31 04:48:52;;;;;;;9.70;1.83;;;27.80;99.90;;;;;;4940900;28;20030;-68
2024/01/31 04:51:22;;;;;;;7.32;2.40;;;27.70;99.90;;;;;;4947137;28;20045;-69
2024/01/31 04:53:49;;;;;;;10.75;2.95;;;27.70;99.90;;;;;;4941124;29;20056;-69
2024/01/31 04:56:18;;;;;;;6.40;1.83;;;27.60;99.90;;;;;;4937148;28;20039;-69
2024/01/31 04:58:45;;;;;;;15.50;3.13;;;27.70;99.90;;;;;;4943409;28;20030;-69
2024/01/31 05:01:12;;;;;;;15.00;2.85;;;27.80;99.90;;;;;;4944019;28;20035;-69
2024/01/31 05:03:40;;;;;;;10.65;2.13;;;27.80;99.90;;;;;;4945468;28;20036;-69
2024/01/31 05:06:07;;;;;;;17.27;2.95;;;27.60;99.90;;;;;;4942511;29;20038;-69
2024/01/31 05:08:34;;;;;;;12.95;2.35;;;27.50;99.90;;;;;;4936371;29;20594;-69
2024/01/31 05:11:02;;;;;;;11.43;2.55;;;27.60;99.90;;;;;;4943235;29;20106;-69
2024/01/31 05:13:29;;;;;;;15.73;2.75;;;27.60;99.90;;;;;;4943447;29;20024;-70
2024/01/31 05:15:56;;;;;;;14.70;2.45;;;27.60;99.90;;;;;;4947197;29;20090;-68
2024/01/31 05:18:24;;;;;;;12.88;2.80;;;27.50;99.90;;;;;;4946242;29;20426;-70
2024/01/31 05:20:51;;;;;;;12.02;2.25;;;27.50;99.90;;;;;;4946087;28;20043;-69
2024/01/31 05:23:18;;;;;;;11.20;2.42;;;27.50;99.90;;;;;;4939944;28;20043;-70
2024/01/31 05:25:46;;;;;;;17.17;2.22;;;27.50;99.90;;;;;;4942198;29;20070;-68
2024/01/31 05:28:13;;;;;;;12.63;2.92;;;27.50;99.90;;;;;;4943589;28;20102;-69
2024/01/31 05:30:40;;;;;;;10.00;2.47;;;27.40;99.90;;;;;;4943311;28;20480;-69
2024/01/31 05:33:08;;;;;;;10.80;2.75;;;27.40;99.90;;;;;;4940453;28;20058;-69
2024/01/31 05:35:36;;;;;;;9.80;2.90;;;27.40;99.90;;;;;;4942571;29;20043;-70
2024/01/31 05:38:04;;;;;;;10.65;2.63;;;27.40;99.90;;;;;;4943940;28;20043;-69
2024/01/31 05:40:31;;;;;;;9.30;1.95;;;27.40;99.90;;;;;;4944867;28;20027;-69
2024/01/31 05:42:59;;;;;;;13.50;2.60;;;27.20;99.90;;;;;;4937861;29;20358;-70
2024/01/31 05:45:27;;;;;;;10.43;2.28;;;27.10;99.90;;;;;;4960479;28;20524;-67
2024/01/31 05:47:54;;;;;;;14.23;2.63;;;27.10;99.90;;;;;;4939744;28;20134;-68
2024/01/31 05:50:21;;;;;;;12.15;2.30;;;27.00;99.90;;;;;;4935874;29;20027;-69
2024/01/31 05:52:49;;;;;;;14.00;2.88;;;27.00;99.90;;;;;;4936414;29;20437;-69
2024/01/31 05:55:16;;;;;;;13.63;2.50;;;27.10;99.90;;;;;;4936346;29;20036;-69
2024/01/31 05:57:52;;;;;;;11.73;2.15;;;27.20;99.90;;;;;;4946403;29;20026;-69
2024/01/31 06:00:19;;;;;;;11.32;2.20;;;27.30;99.90;;;;;;4941730;28;20040;-70
2024/01/31 06:02:46;;;;;;;11.70;2.22;;;27.10;99.90;;;;;;4940383;28;20113;-68
2024/01/31 06:05:14;;;;;;;12.63;2.28;;;27.00;99.90;;;;;;4937342;28;20043;-69
2024/01/31 06:07:41;;;;;;;12.23;2.10;;;26.90;99.90;;;;;;4944012;28;20023;-69
2024/01/31 06:10:09;;;;;;;12.63;2.88;;;26.80;99.90;;;;;;4944733;28;20046;-69
2024/01/31 06:12:36;;;;;;;14.60;2.25;;;26.80;99.90;;;;;;4945089;29;20039;-69
2024/01/31 06:15:04;;;;;;;14.35;3.05;;;26.90;99.90;;;;;;4938759;29;20046;-69
2024/01/31 06:17:31;;;;;;;11.48;2.40;;;26.90;99.90;;;;;;4938126;29;20075;-69
2024/01/31 06:19:59;;;;;;;19.20;2.75;;;26.80;99.90;;;;;;4941607;28;20673;-69
2024/01/31 06:22:26;;;;;;;9.82;2.10;;;26.60;99.90;;;;;;4935232;29;20024;-68
2024/01/31 06:24:53;;;;;;;12.65;2.20;;;26.60;99.90;;;;;;4939142;29;20083;-68
2024/01/31 06:27:21;;;;;;;12.63;1.98;;;26.40;99.90;;;;;;4938777;29;20477;-69
2024/01/31 06:29:48;;;;;;;16.30;2.50;;;26.20;99.90;;;;;;4936399;28;20397;-69
2024/01/31 06:32:21;;;;;;;10.57;1.92;;;26.10;99.90;;;;;;4934855;29;20030;-68
2024/01/31 06:34:49;;;;;;;12.57;2.40;;;26.00;99.90;;;;;;4935045;28;20028;-68
2024/01/31 06:37:16;;;;;;;17.45;3.08;;;25.80;99.90;;;;;;4941397;29;20491;-69
2024/01/31 06:39:43;;;;;;;16.40;2.67;;;25.80;99.90;;;;;;4935036;29;20031;-71
2024/01/31 06:42:11;;;;;;;17.45;2.72;;;25.80;99.90;;;;;;4939719;29;20074;-69
2024/01/31 06:44:38;;;;;;;11.32;2.58;;;25.60;99.90;;;;;;4946857;28;20414;-68
2024/01/31 06:47:05;;;;;;;14.35;2.42;;;25.60;99.90;;;;;;4946005;29;20090;-69
2024/01/31 06:49:33;;;;;;;18.30;2.60;;;25.60;99.90;;;;;;4939597;29;20024;-70
2024/01/31 06:52:00;;;;;;;11.90;2.47;;;25.40;99.90;;;;;;4938675;29;20761;-70
2024/01/31 06:54:27;;;;;;;7.75;1.75;;;25.30;99.90;;;;;;4934132;29;20545;-70
2024/01/31 06:56:55;;;;;;;10.18;1.52;;;25.10;99.90;;;;;;4933796;29;20059;-71
2024/01/31 06:59:22;;;;;;;8.90;1.63;;;24.90;99.90;;;;;;4956901;28;20027;-70
2024/01/31 07:01:50;;;;;;;6.20;1.13;;;24.80;99.90;;;;;;4936526;28;20032;-71
2024/01/31 07:04:17;;;;;;;14.50;2.55;;;24.80;99.90;;;;;;4935402;29;20027;-70
2024/01/31 07:06:45;;;;;;;5.85;1.50;;;24.80;99.90;;;;;;4935102;29;20031;-70
2024/01/31 07:09:12;;;;;;;7.22;0.90;;;24.70;99.90;;;;;;4934840;29;20028;-70
2024/01/31 07:11:39;;;;;;;8.00;1.73;;;24.70;99.90;;;;;;4941375;28;20378;-70
2024/01/31 07:14:07;;;;;;;7.72;1.20;;;24.70;99.90;;;;;;4932455;29;20074;-68
2024/01/31 07:16:35;;;;;;;7.30;1.10;;;24.60;99.90;;;;;;4936864;28;20039;-69
2024/01/31 07:19:03;;;;;;;6.57;1.38;;;24.60;99.90;;;;;;4944402;29;20027;-68
2024/01/31 07:21:30;;;;;;;7.07;1.42;;;24.70;99.90;;;;;;4945435;29;20441;-71
2024/01/31 07:23:58;;;;;;;8.55;1.52;;;24.70;99.90;;;;;;4934977;29;20031;-69
2024/01/31 07:26:29;;;;;;;9.75;1.38;;;24.70;99.90;;;;;;4940371;29;20030;-70
2024/01/31 07:28:58;;;;;;;9.60;1.38;;;24.70;99.90;;;;;;4945920;28;20031;-70
2024/01/31 07:31:25;;;;;;;13.18;1.73;;;24.70;99.90;;;;;;4937981;28;20484;-70
2024/01/31 07:33:53;;;;;;;14.35;2.35;;;24.70;99.90;;;;;;4947837;28;20560;-67
2024/01/31 07:36:20;;;;;;;14.70;2.85;;;24.80;99.90;;;;;;4948474;28;20039;-68
2024/01/31 07:38:48;;;;;;;11.48;1.80;;;24.90;99.90;;;;;;4945882;28;20028;-67
2024/01/31 07:41:15;;;;;;;10.82;2.05;;;24.90;99.90;;;;;;4944707;29;21083;-68
2024/01/31 07:43:43;;;;;;;13.75;2.22;;;25.10;99.90;;;;;;4950550;28;20055;-68
2024/01/31 07:46:12;;;;;;;13.27;2.08;;;25.00;99.90;;;;;;4947835;29;20034;-68
2024/01/31 07:48:39;;;;;;;14.50;2.25;;;25.10;99.90;;;;;;4946202;28;20077;-68
2024/01/31 07:51:07;;;;;;;10.52;2.28;;;25.10;99.90;;;;;;4945916;28;20031;-67
2024/01/31 07:53:34;;;;;;;15.43;2.08;;;25.10;99.90;;;;;;4944487;28;20056;-68
2024/01/31 07:56:04;;;;;;;11.60;1.70;;;25.00;99.90;;;;;;4940230;29;20043;-68
2024/01/31 07:58:32;;;;;;;19.25;2.28;;;24.90;99.90;;;;;;4951461;29;20031;-68
2024/01/31 08:00:59;;;;;;;17.40;2.50;;;24.90;99.90;;;;;;4937876;29;20103;-66
2024/01/31 08:03:26;;;;;;;17.15;2.50;;;24.90;99.90;;;;;;4941736;28;20027;-66
2024/01/31 08:05:54;;;;;;;13.15;1.95;;;24.90;99.90;;;;;;4937800;29;20035;-68
2024/01/31 08:08:21;;;;;;;13.15;2.20;;;24.90;99.90;;;;;;4938406;28;20038;-69
2024/01/31 08:10:48;;;;;;;11.88;2.22;;;25.00;99.90;;;;;;4953083;28;20027;-68
2024/01/31 08:13:16;;;;;;;12.70;3.10;;;25.00;99.90;;;;;;4952895;28;20034;-69
2024/01/31 08:15:43;;;;;;;13.88;1.98;;;25.00;99.90;;;;;;4942719;28;20057;-68
2024/01/31 08:18:10;;;;;;;16.33;2.58;;;25.00;99.90;;;;;;4943859;29;20023;-69
2024/01/31 08:20:38;;;;;;;13.60;2.65;;;25.10;99.90;;;;;;4942238;28;20019;-68
2024/01/31 08:23:06;;;;;;;16.13;2.30;;;25.10;99.90;;;;;;4937642;29;20032;-68
2024/01/31 08:25:33;;;;;;;19.15;2.35;;;25.00;99.90;;;;;;4938870;29;20030;-69
2024/01/31 08:28:01;;;;;;;12.95;1.98;;;24.90;99.90;;;;;;4940900;29;20032;-67
2024/01/31 08:30:28;;;;;;;11.30;2.15;;;24.80;99.90;;;;;;4944398;29;20023;-67
2024/01/31 08:32:56;;;;;;;14.90;3.05;;;24.70;99.90;;;;;;4945863;28;20028;-69
2024/01/31 08:35:23;;;;;;;15.23;3.03;;;24.70;99.90;;;;;;4946058;28;20382;-68
2024/01/31 08:37:51;;;;;;;9.75;2.13;;;24.60;99.90;;;;;;4942616;28;20374;-68
2024/01/31 08:40:18;;;;;;;14.02;2.63;;;24.50;99.90;;;;;;4960832;28;20190;-70
2024/01/31 08:42:45;;;;;;;16.88;2.38;;;24.50;99.90;;;;;;4946561;28;20032;-69
2024/01/31 08:45:13;;;;;;;17.30;3.35;;;24.60;99.90;;;;;;4950347;28;20507;-67
2024/01/31 08:47:41;;;;;;;18.40;3.38;;;24.50;99.90;;;;;;4944389;29;20489;-69
2024/01/31 08:50:09;;;;;;;16.75;2.55;;;24.40;99.90;;;;;;4945585;28;20031;-67
2024/01/31 08:52:37;;;;;;;17.90;2.80;;;24.40;99.90;;;;;;4952294;28;20027;-68
2024/01/31 08:55:05;;;;;;;12.32;2.65;;;24.40;99.90;;;;;;4944784;28;20023;-68
2024/01/31 08:57:33;;;;;;;12.95;1.98;;;24.30;99.90;;;;;;4953035;28;20401;-67
2024/01/31 09:00:00;;;;;;;10.82;1.83;;;24.40;99.90;;;;;;4938567;28;20024;-68
2024/01/31 09:02:28;;;;;;;10.02;1.80;;;24.50;99.90;;;;;;4938011;29;20236;-67
2024/01/31 09:04:55;;;;;;;8.82;1.52;;;24.60;99.90;;;;;;4941708;29;20134;-68
2024/01/31 09:07:22;;;;;;;13.50;2.05;;;24.60;99.90;;;;;;4940044;29;20031;-70
2024/01/31 09:09:50;;;;;;;7.15;2.00;;;24.70;99.90;;;;;;4941006;29;20024;-69
2024/01/31 09:12:17;;;;;;;9.15;1.30;;;24.50;99.90;;;;;;4943142;29;20024;-67
2024/01/31 09:14:45;;;;;;;10.82;1.95;;;24.60;99.90;;;;;;4941313;29;20465;-67
2024/01/31 09:17:12;;;;;;;10.75;1.65;;;24.60;99.90;;;;;;4944207;28;20032;-68
2024/01/31 09:19:40;;;;;;;12.15;2.63;;;24.50;99.90;;;;;;4948172;28;20035;-68
2024/01/31 09:22:08;;;;;;;8.98;2.17;;;24.50;99.90;;;;;;4940088;28;20050;-68
2024/01/31 09:24:35;;;;;;;10.43;1.90;;;24.60;99.90;;;;;;4942985;28;20031;-67
2024/01/31 09:27:03;;;;;;;8.18;2.10;;;24.50;99.90;;;;;;4944261;28;20065;-69
2024/01/31 09:29:31;;;;;;;12.23;1.90;;;24.60;99.90;;;;;;4941171;29;20031;-71
2024/01/31 09:31:59;;;;;;;10.45;1.73;;;24.50;99.90;;;;;;4951274;28;20421;-69
2024/01/31 09:34:27;;;;;;;11.05;2.33;;;24.50;99.90;;;;;;4942303;29;20078;-69
2024/01/31 09:36:54;;;;;;;8.13;1.08;;;24.40;99.90;;;;;;4947998;28;20473;-67
2024/01/31 09:39:21;;;;;;;7.45;1.65;;;24.40;99.90;;;;;;4941540;28;20457;-67
2024/01/31 09:41:49;;;;;;;8.95;1.83;;;24.20;99.90;;;;;;4950710;28;20024;-67
2024/01/31 09:44:18;;;;;;;11.45;1.25;;;24.10;99.90;;;;;;4938734;29;20028;-69
2024/01/31 09:46:47;;;;;;;8.48;1.00;;;24.10;99.90;;;;;;4941175;28;20058;-67
2024/01/31 09:49:14;;;;;;;4.97;1.50;;;24.10;99.90;;;;;;4943610;28;20024;-67
2024/01/31 09:51:42;;;;;;;6.20;1.15;;;24.00;99.90;;;;;;4941845;29;20038;-68
2024/01/31 09:54:10;;;;;;;5.80;1.77;;;23.90;99.90;;;;;;4942122;28;20454;-68
2024/01/31 09:56:37;;;;;;;6.15;1.42;;;23.90;99.90;;;;;;4945382;29;20054;-69
2024/01/31 09:59:05;;;;;;;4.80;1.08;;;24.00;99.90;;;;;;4939272;29;20111;-68
2024/01/31 10:01:33;;;;;;;4.03;1.05;;;23.90;99.90;;;;;;4949271;28;20023;-69
2024/01/31 10:04:01;;;;;;;8.38;1.35;;;24.00;99.90;;;;;;4941726;29;20385;-67
2024/01/31 10:06:28;;;;;;;4.75;1.20;;;24.00;99.90;;;;;;4935977;29;20059;-69
2024/01/31 10:08:57;;;;;;;4.03;1.10;;;24.00;99.90;;;;;;4935516;29;20027;-68
2024/01/31 10:11:27;;;;;;;8.85;1.67;;;23.90;99.90;;;;;;4941973;29;20453;-68
2024/01/31 10:13:55;;;;;;;11.65;1.30;;;24.00;99.90;;;;;;4943191;29;20138;-68
2024/01/31 10:16:23;;;;;;;5.32;1.10;;;24.00;99.90;;;;;;4938578;29;20030;-69
2024/01/31 10:18:51;;;;;;;6.13;1.23;;;23.90;99.90;;;;;;4944228;28;20032;-68
2024/01/31 10:21:22;;;;;;;7.80;1.23;;;23.90;99.90;;;;;;4936945;29;20078;-69
2024/01/31 10:23:59;;;;;;;8.93;2.15;;;23.80;99.90;;;;;;4935285;29;20026;-68
2024/01/31 10:26:27;;;;;;;5.43;1.67;;;23.70;99.90;;;;;;4944613;29;20450;-69
2024/01/31 10:28:55;;;;;;;8.18;1.55;;;23.70;99.90;;;;;;4940931;28;20500;-68
2024/01/31 10:31:23;;;;;;;13.00;2.55;;;23.80;99.90;;;;;;4941942;28;20139;-68
2024/01/31 10:33:51;;;;;;;8.52;1.55;;;23.50;99.90;;;;;;4938290;28;20032;-69
2024/01/31 10:36:19;;;;;;;10.85;1.55;;;23.70;99.90;;;;;;4937323;28;20047;-68
2024/01/31 10:38:47;;;;;;;5.50;1.35;;;23.60;99.90;;;;;;4935566;28;20381;-68
2024/01/31 10:41:18;;;;;;;10.95;1.50;;;23.70;99.90;;;;;;4947133;28;20035;-67
2024/01/31 10:43:48;;;;;;;12.00;2.13;;;23.70;99.90;;;;;;4939370;28;20038;-69
2024/01/31 10:46:16;;;;;;;8.88;1.40;;;23.80;99.90;;;;;;4945256;28;20031;-68
2024/01/31 10:48:43;;;;;;;11.73;2.00;;;23.70;99.90;;;;;;4936255;28;20071;-69
2024/01/31 10:51:12;;;;;;;11.18;2.95;;;23.80;99.90;;;;;;4939290;28;20028;-68
2024/01/31 10:53:40;;;;;;;9.95;2.30;;;23.80;99.90;;;;;;4936686;28;20062;-68
2024/01/31 10:56:10;;;;;;;9.75;1.90;;;23.80;99.90;;;;;;4948157;29;20055;-68
2024/01/31 10:58:38;;;;;;;12.48;1.58;;;23.80;99.90;;;;;;4943534;28;20117;-68
2024/01/31 11:01:07;;;;;;;11.60;2.03;;;23.70;99.90;;;;;;4937734;28;20024;-67
2024/01/31 11:03:34;;;;;;;11.57;2.40;;;23.70;99.90;;;;;;4949138;28;20090;-67
2024/01/31 11:06:03;;;;;;;8.50;1.90;;;23.70;99.90;;;;;;4941440;29;20390;-67
2024/01/31 11:08:31;;;;;;;11.38;2.53;;;23.80;99.90;;;;;;4943534;28;20049;-69
2024/01/31 11:10:59;;;;;;;18.88;3.00;;;23.70;99.90;;;;;;4936448;28;20027;-68
2024/01/31 11:13:27;;;;;;;10.98;1.92;;;23.70;99.90;;;;;;4936405;28;20023;-68
2024/01/31 11:15:54;;;;;;;19.05;2.70;;;23.80;99.90;;;;;;4936198;29;20468;-67
2024/01/31 11:18:26;;;;;;;15.05;2.33;;;23.70;99.90;;;;;;4948593;28;20023;-68
2024/01/31 11:20:55;;;;;;;24.13;2.30;;;23.50;99.90;;;;;;4935907;28;20035;-68
2024/01/31 11:23:25;;;;;;;22.42;3.13;;;23.70;99.90;;;;;;4937844;29;20025;-67
2024/01/31 11:25:53;;;;;;;14.25;1.95;;;23.60;99.90;;;;;;4949730;28;20077;-68
2024/01/31 11:28:25;;;;;;;16.73;2.95;;;23.50;99.90;;;;;;4934186;28;20036;-67
2024/01/31 11:30:52;;;;;;;16.30;2.72;;;23.60;99.90;;;;;;4952755;28;20113;-68
2024/01/31 11:33:21;;;;;;;11.98;2.90;;;23.70;99.90;;;;;;4941983;29;20360;-67
2024/01/31 11:35:48;;;;;;;15.45;2.92;;;23.60;99.90;;;;;;4939013;29;20492;-68
2024/01/31 11:38:17;;;;;;;15.15;2.58;;;23.60;99.90;;;;;;4940857;29;20034;-69
2024/01/31 11:40:44;;;;;;;15.23;3.28;;;23.60;99.90;;;;;;4933574;29;20477;-69
2024/01/31 11:43:14;;;;;;;17.83;3.00;;;23.60;99.90;;;;;;4941289;29;20035;-69
2024/01/31 11:45:41;;;;;;;12.85;2.92;;;23.50;99.90;;;;;;4949650;28;20032;-67
2024/01/31 11:48:09;;;;;;;14.40;2.50;;;23.40;99.90;;;;;;4942568;29;20051;-68
2024/01/31 11:50:36;;;;;;;16.83;3.13;;;23.40;99.90;;;;;;4944858;28;20024;-67
2024/01/31 11:53:03;;;;;;;18.80;2.55;;;23.30;99.90;;;;;;4947384;28;20055;-68
2024/01/31 11:55:33;;;;;;;14.10;3.22;;;23.10;99.90;;;;;;4935734;28;20489;-68
2024/01/31 11:58:01;;;;;;;16.00;2.78;;;23.00;99.90;;;;;;4934626;28;20556;-68
2024/01/31 12:00:29;;;;;;;20.42;3.67;;;22.90;99.90;;;;;;4940766;28;20038;-69
2024/01/31 12:02:57;;;;;;;15.45;3.03;;;22.80;99.90;;;;;;4938656;28;20048;-69
2024/01/31 12:05:24;;;;;;;12.40;3.00;;;23.00;99.90;;;;;;4941132;28;20039;-68
2024/01/31 12:07:59;;;;;;;16.27;3.55;;;22.90;99.90;;;;;;4940727;28;20023;-68
2024/01/31 12:10:27;;;;;;;13.20;3.42;;;22.70;99.90;;;;;;4942770;29;20031;-68
2024/01/31 12:13:00;;;;;;;12.27;3.13;;;22.70;99.90;;;;;;4943495;28;20034;-67
2024/01/31 12:15:30;;;;;;;15.27;3.55;;;22.70;99.90;;;;;;4936645;29;20063;-68
2024/01/31 12:17:58;;;;;;;13.32;3.22;;;22.70;99.90;;;;;;4945124;28;20358;-67
2024/01/31 12:20:26;;;;;;;14.20;3.60;;;22.50;99.90;;;;;;4944180;29;20429;-67
2024/01/31 12:22:53;;;;;;;10.30;3.42;;;22.40;99.90;;;;;;4942517;29;20351;-67
2024/01/31 12:25:20;;;;;;;19.70;3.35;;;22.50;99.90;;;;;;4941711;29;20081;-68
2024/01/31 12:27:48;;;;;;;12.02;3.20;;;22.40;99.90;;;;;;4940888;28;20020;-69
2024/01/31 12:30:16;;;;;;;18.35;4.45;;;22.40;99.90;;;;;;4939819;28;20023;-68
2024/01/31 12:32:43;;;;;;;11.05;3.67;;;22.40;99.90;;;;;;4936016;29;20050;-69
2024/01/31 12:35:10;;;;;;;13.60;3.80;;;22.30;99.90;;;;;;4942217;29;20388;-68
2024/01/31 12:37:41;;;;;;;15.07;4.10;;;22.20;99.90;;;;;;4943932;28;20055;-68
2024/01/31 12:40:12;;;;;;;15.55;4.32;;;22.20;99.90;;;;;;4943222;29;20034;-69
2024/01/31 12:42:39;;;;;;;15.50;4.00;;;22.10;99.90;;;;;;4943846;28;20065;-68